createdAt,value
2023-05-05T00:01:45.164Z,81.90
2023-05-05T00:03:57.266Z,81.96
2023-05-05T00:06:10.809Z,81.35
2023-05-05T00:08:23.444Z,81.70
2023-05-05T00:10:35.049Z,81.79
2023-05-05T00:12:47.107Z,81.79
2023-05-05T00:14:59.170Z,81.90
2023-05-05T00:17:12.319Z,82.00
2023-05-05T00:19:24.272Z,82.00
2023-05-05T00:21:36.420Z,82.21
2023-05-05T00:23:48.449Z,81.84
2023-05-05T00:26:01.523Z,82.24
2023-05-05T00:28:14.613Z,82.14
2023-05-05T00:30:26.673Z,82.04
2023-05-05T00:32:39.397Z,81.94
2023-05-05T00:34:50.842Z,82.14
2023-05-05T00:37:03.906Z,82.24
2023-05-05T00:39:15.005Z,82.14
2023-05-05T00:41:27.982Z,81.84
2023-05-05T00:43:39.188Z,82.18
2023-05-05T00:45:52.127Z,82.28
2023-05-05T00:48:03.372Z,82.28
2023-05-05T00:50:15.392Z,82.49
2023-05-05T00:52:27.483Z,82.39
2023-05-05T00:54:39.582Z,82.93
2023-05-05T00:56:51.662Z,82.83
2023-05-05T00:59:06.102Z,82.93
2023-05-05T01:01:17.337Z,83.04
2023-05-05T01:03:29.516Z,82.93
2023-05-05T01:05:41.473Z,83.04
2023-05-05T01:07:53.550Z,83.14
2023-05-05T01:10:18.899Z,83.04
2023-05-05T01:12:18.709Z,83.18
2023-05-05T01:14:31.769Z,82.87
2023-05-05T01:16:44.009Z,82.97
2023-05-05T01:18:55.936Z,83.18
2023-05-05T01:21:08.008Z,83.59
2023-05-05T01:23:20.082Z,83.80
2023-05-05T01:25:33.170Z,84.25
2023-05-05T01:27:44.289Z,83.94
2023-05-05T01:29:56.345Z,84.14
2023-05-05T01:32:08.499Z,84.14
2023-05-05T01:34:21.468Z,84.25
2023-05-05T01:36:34.168Z,84.45
2023-05-05T01:38:47.756Z,84.45
2023-05-05T01:40:59.809Z,84.45
2023-05-05T01:43:12.778Z,84.45
2023-05-05T01:45:23.977Z,84.04
2023-05-05T01:47:36.119Z,84.69
2023-05-05T01:49:48.174Z,84.59
2023-05-05T01:52:00.231Z,84.80
2023-05-05T01:54:12.316Z,85.00
2023-05-05T01:56:24.403Z,85.11
2023-05-05T01:58:36.989Z,85.00
2023-05-05T02:00:48.568Z,84.80
2023-05-05T02:03:00.686Z,84.69
2023-05-05T02:05:14.130Z,84.90
2023-05-05T02:07:24.789Z,84.69
2023-05-05T02:09:37.392Z,84.69
2023-05-05T02:11:48.989Z,84.80
2023-05-05T02:14:01.979Z,85.04
2023-05-05T02:16:15.066Z,85.25
2023-05-05T02:18:25.211Z,85.46
2023-05-05T02:20:38.286Z,85.14
2023-05-05T02:22:50.390Z,85.46
2023-05-05T02:25:02.456Z,85.14
2023-05-05T02:27:15.502Z,85.70
2023-05-05T02:29:27.584Z,85.80
2023-05-05T02:31:39.783Z,85.80
2023-05-05T02:33:51.802Z,86.21
2023-05-05T02:36:03.828Z,86.42
2023-05-05T02:38:16.790Z,86.21
2023-05-05T02:40:28.881Z,86.42
2023-05-05T02:42:40.125Z,86.56
2023-05-05T02:44:53.720Z,86.66
2023-05-05T02:47:05.786Z,86.66
2023-05-05T02:49:18.798Z,86.87
2023-05-05T02:51:29.915Z,87.22
2023-05-05T02:53:43.004Z,87.42
2023-05-05T02:55:55.096Z,87.94
2023-05-05T02:58:07.179Z,88.04
2023-05-05T03:00:19.228Z,88.14
2023-05-05T03:02:31.358Z,88.59
2023-05-05T03:04:43.402Z,88.59
2023-05-05T03:06:55.515Z,89.01
2023-05-05T03:09:07.553Z,89.01
2023-05-05T03:11:20.654Z,88.90
2023-05-05T03:13:32.699Z,88.80
2023-05-05T03:15:44.784Z,88.90
2023-05-05T03:17:56.955Z,89.42
2023-05-05T03:20:09.083Z,89.46
2023-05-05T03:22:21.020Z,89.46
2023-05-05T03:24:33.125Z,90.18
2023-05-05T03:26:46.093Z,90.39
2023-05-05T03:28:57.311Z,90.08
2023-05-05T03:31:09.359Z,90.08
2023-05-05T03:33:21.467Z,89.73
2023-05-05T03:35:35.036Z,89.42
2023-05-05T03:37:47.088Z,89.52
2023-05-05T03:39:59.241Z,89.31
2023-05-05T03:42:11.258Z,89.42
2023-05-05T03:44:23.351Z,89.52
2023-05-05T03:46:35.433Z,89.31
2023-05-05T03:48:47.516Z,89.31
2023-05-05T03:51:00.489Z,89.31
2023-05-05T03:53:11.670Z,89.11
2023-05-05T03:55:23.736Z,89.01
2023-05-05T03:57:37.013Z,88.66
2023-05-05T03:59:48.196Z,88.14
2023-05-05T04:02:00.381Z,88.14
2023-05-05T04:04:12.523Z,88.24
2023-05-05T04:06:25.435Z,87.84
2023-05-05T04:08:37.544Z,87.73
2023-05-05T04:10:49.613Z,87.07
2023-05-05T04:13:01.754Z,86.97
2023-05-05T04:15:14.666Z,86.87
2023-05-05T04:17:27.379Z,86.66
2023-05-05T04:19:39.433Z,86.32
2023-05-05T04:21:51.521Z,85.90
2023-05-05T04:24:03.650Z,85.55
2023-05-05T04:26:15.734Z,85.35
2023-05-05T04:28:28.281Z,85.04
2023-05-05T04:30:40.129Z,84.63
2023-05-05T04:32:53.878Z,84.59
2023-05-05T04:35:05.828Z,84.39
2023-05-05T04:37:17.882Z,84.28
2023-05-05T04:39:30.002Z,84.28
2023-05-05T04:41:42.077Z,84.28
2023-05-05T04:43:54.141Z,84.18
2023-05-05T04:46:06.256Z,84.14
2023-05-05T04:48:19.191Z,83.94
2023-05-05T04:50:30.379Z,84.25
2023-05-05T04:52:43.350Z,83.42
2023-05-05T04:54:55.060Z,83.07
2023-05-05T04:57:06.639Z,82.67
2023-05-05T04:59:18.718Z,82.42
2023-05-05T05:01:30.786Z,81.57
2023-05-05T05:03:42.963Z,81.12
2023-05-05T05:05:54.931Z,80.40
2023-05-05T05:08:07.060Z,79.54
2023-05-05T05:10:19.139Z,79.61
2023-05-05T05:12:31.280Z,78.34
2023-05-05T05:14:43.333Z,77.63
2023-05-05T05:16:56.374Z,77.29
2023-05-05T05:19:09.946Z,76.33
2023-05-05T05:21:20.572Z,75.51
2023-05-05T05:23:32.614Z,74.25
2023-05-05T05:25:44.684Z,74.56
2023-05-05T05:28:08.749Z,72.99
2023-05-05T05:28:57.741Z,73.81
2023-05-05T05:31:09.720Z,72.14
2023-05-05T05:33:21.804Z,72.11
2023-05-05T05:35:33.091Z,71.19
2023-05-05T05:37:46.574Z,71.56
2023-05-05T05:40:00.603Z,71.02
2023-05-05T05:42:11.733Z,69.19
2023-05-05T05:44:23.797Z,69.76
2023-05-05T05:46:36.042Z,67.83
2023-05-05T05:48:48.853Z,68.21
2023-05-05T05:51:00.163Z,68.54
2023-05-05T05:53:12.189Z,69.90
2023-05-05T05:55:27.127Z,69.63
2023-05-05T05:57:39.245Z,70.57
2023-05-05T05:59:50.442Z,70.14
2023-05-05T06:02:04.462Z,68.54
2023-05-05T06:04:17.182Z,67.46
2023-05-05T06:06:29.252Z,66.89
2023-05-05T06:08:41.320Z,65.57
2023-05-05T06:10:53.467Z,65.57
2023-05-05T06:13:05.535Z,66.05
2023-05-05T06:15:18.515Z,65.03
2023-05-05T06:17:29.629Z,64.70
2023-05-05T06:19:41.749Z,64.29
2023-05-05T06:21:53.795Z,63.91
2023-05-05T06:24:06.885Z,64.55
2023-05-05T06:26:19.858Z,65.03
2023-05-05T06:28:31.938Z,64.90
2023-05-05T06:30:43.238Z,64.29
2023-05-05T06:32:56.227Z,64.67
2023-05-05T06:35:08.261Z,62.94
2023-05-05T06:37:20.343Z,63.69
2023-05-05T06:39:32.417Z,61.16
2023-05-05T06:41:44.519Z,60.55
2023-05-05T06:43:56.585Z,61.36
2023-05-05T06:46:08.640Z,61.32
2023-05-05T06:48:20.728Z,62.53
2023-05-05T06:50:32.824Z,62.02
2023-05-05T06:52:44.914Z,61.72
2023-05-05T06:54:56.973Z,63.72
2023-05-05T06:57:09.066Z,61.39
2023-05-05T06:59:22.114Z,60.98
2023-05-05T07:01:34.183Z,60.04
2023-05-05T07:03:47.302Z,60.11
2023-05-05T07:06:00.835Z,60.39
2023-05-05T07:08:12.915Z,59.45
2023-05-05T07:10:25.005Z,57.53
2023-05-05T07:12:37.106Z,58.97
2023-05-05T07:14:49.196Z,58.97
2023-05-05T07:17:01.268Z,60.57
2023-05-05T07:19:13.535Z,60.13
2023-05-05T07:21:25.383Z,57.54
2023-05-05T07:23:38.998Z,56.63
2023-05-05T07:25:51.973Z,56.30
2023-05-05T07:28:04.014Z,57.27
2023-05-05T07:30:18.354Z,57.50
2023-05-05T07:32:28.293Z,57.47
2023-05-05T07:34:39.372Z,55.95
2023-05-05T07:36:52.466Z,57.09
2023-05-05T07:39:04.545Z,57.09
2023-05-05T07:41:16.604Z,58.31
2023-05-05T07:43:28.708Z,56.96
2023-05-05T07:45:40.823Z,55.82
2023-05-05T07:47:53.786Z,57.24
2023-05-05T07:50:04.930Z,56.53
2023-05-05T07:52:17.913Z,57.01
2023-05-05T07:54:29.154Z,56.20
2023-05-05T07:56:42.099Z,56.84
2023-05-05T07:58:54.196Z,58.93
2023-05-05T08:01:05.379Z,57.69
2023-05-05T08:03:18.549Z,57.18
2023-05-05T08:05:30.527Z,55.44
2023-05-05T08:07:44.462Z,54.94
2023-05-05T08:09:55.697Z,54.03
2023-05-05T08:12:07.759Z,54.71
2023-05-05T08:14:19.846Z,56.27
2023-05-05T08:16:32.960Z,53.14
2023-05-05T08:18:44.000Z,52.72
2023-05-05T08:20:56.087Z,52.82
2023-05-05T08:23:08.168Z,52.42
2023-05-05T08:25:21.616Z,54.36
2023-05-05T08:27:32.316Z,53.12
2023-05-05T08:29:45.896Z,51.99
2023-05-05T08:31:58.100Z,52.04
2023-05-05T08:34:10.575Z,51.21
2023-05-05T08:36:22.152Z,51.93
2023-05-05T08:38:34.200Z,51.76
2023-05-05T08:40:47.272Z,51.84
2023-05-05T08:42:59.376Z,51.34
2023-05-05T08:45:11.710Z,52.92
2023-05-05T08:47:23.638Z,51.29
2023-05-05T08:49:36.665Z,49.95
2023-05-05T08:51:48.769Z,49.73
2023-05-05T08:54:00.865Z,50.11
2023-05-05T08:56:12.927Z,48.80
2023-05-05T08:58:26.405Z,49.76
2023-05-05T09:00:37.949Z,46.83
2023-05-05T09:02:50.192Z,48.50
2023-05-05T09:05:01.245Z,48.28
2023-05-05T09:07:13.321Z,47.92
2023-05-05T09:09:26.499Z,48.52
2023-05-05T09:11:42.005Z,48.12
2023-05-05T09:13:54.042Z,49.96
2023-05-05T09:16:12.163Z,47.23
2023-05-05T09:18:24.727Z,48.01
2023-05-05T09:20:40.701Z,46.68
2023-05-05T09:22:53.373Z,46.68
2023-05-05T09:25:07.233Z,46.28
2023-05-05T09:27:20.614Z,46.08
2023-05-05T09:29:36.130Z,46.08
2023-05-05T09:31:49.740Z,47.64
2023-05-05T09:34:06.200Z,45.96
2023-05-05T09:36:18.930Z,47.08
2023-05-05T09:38:32.833Z,46.14
2023-05-05T09:40:46.078Z,46.14
2023-05-05T09:42:59.745Z,44.97
2023-05-05T09:45:13.263Z,44.95
2023-05-05T09:47:29.452Z,44.70
2023-05-05T09:49:38.937Z,46.64
2023-05-05T09:51:51.292Z,47.30
2023-05-05T09:54:04.871Z,44.29
2023-05-05T09:56:16.969Z,44.51
2023-05-05T09:58:30.621Z,45.54
2023-05-05T10:00:43.628Z,46.06
2023-05-05T10:02:55.744Z,45.16
2023-05-05T10:05:07.888Z,45.68
2023-05-05T10:07:19.855Z,45.36
2023-05-05T10:09:31.947Z,45.34
2023-05-05T10:11:44.036Z,45.79
2023-05-05T10:13:56.987Z,46.55
2023-05-05T10:16:08.172Z,43.85
2023-05-05T10:18:20.303Z,44.13
2023-05-05T10:20:32.906Z,45.40
2023-05-05T10:22:44.466Z,42.43
2023-05-05T10:24:56.493Z,44.71
2023-05-05T10:27:08.917Z,41.19
2023-05-05T10:29:20.687Z,44.19
2023-05-05T10:31:32.801Z,43.95
2023-05-05T10:33:44.965Z,41.97
2023-05-05T10:35:56.922Z,41.02
2023-05-05T10:38:08.994Z,42.19
2023-05-05T10:40:21.075Z,42.40
2023-05-05T10:42:33.178Z,42.10
2023-05-05T10:44:47.171Z,44.35
2023-05-05T10:46:59.221Z,42.41
2023-05-05T10:49:12.960Z,40.74
2023-05-05T10:51:35.264Z,43.85
2023-05-05T10:53:34.543Z,43.51
2023-05-05T10:55:46.739Z,42.99
2023-05-05T10:57:58.765Z,44.15
2023-05-05T11:00:12.898Z,40.36
2023-05-05T11:02:22.946Z,43.13
2023-05-05T11:04:37.876Z,42.69
2023-05-05T11:06:48.063Z,39.42
2023-05-05T11:09:01.030Z,41.31
2023-05-05T11:11:12.209Z,44.14
2023-05-05T11:13:24.382Z,40.60
2023-05-05T11:15:36.364Z,38.90
2023-05-05T11:17:48.592Z,39.05
2023-05-05T11:20:01.420Z,40.60
2023-05-05T11:22:12.913Z,41.69
2023-05-05T11:24:24.983Z,40.18
2023-05-05T11:26:37.057Z,39.53
2023-05-05T11:28:49.168Z,41.52
2023-05-05T11:31:01.335Z,41.93
2023-05-05T11:33:13.280Z,39.44
2023-05-05T11:35:25.359Z,39.86
2023-05-05T11:37:37.435Z,41.36
2023-05-05T11:39:49.636Z,41.06
2023-05-05T11:42:07.972Z,41.77
2023-05-05T11:44:14.660Z,41.39
2023-05-05T11:46:27.662Z,42.05
2023-05-05T11:48:38.711Z,45.35
2023-05-05T11:50:49.923Z,42.40
2023-05-05T11:53:02.005Z,40.66
2023-05-05T11:55:14.061Z,41.06
2023-05-05T11:57:26.144Z,40.10
2023-05-05T11:59:38.236Z,39.34
2023-05-05T12:01:50.335Z,42.61
2023-05-05T12:04:02.524Z,40.90
2023-05-05T12:06:14.450Z,41.50
2023-05-05T12:08:26.527Z,39.70
2023-05-05T12:10:39.598Z,41.09
2023-05-05T12:12:54.562Z,40.40
2023-05-05T12:15:05.674Z,40.36
2023-05-05T12:17:16.830Z,41.38
2023-05-05T12:19:28.909Z,42.61
2023-05-05T12:21:40.991Z,43.79
2023-05-05T12:23:53.094Z,42.69
2023-05-05T12:26:05.152Z,43.09
2023-05-05T12:28:17.202Z,45.21
2023-05-05T12:30:29.238Z,42.54
2023-05-05T12:32:42.122Z,43.85
2023-05-05T12:34:53.261Z,44.15
2023-05-05T12:37:05.326Z,44.57
2023-05-05T12:39:17.406Z,43.98
2023-05-05T12:41:30.460Z,43.79
2023-05-05T12:43:42.543Z,44.82
2023-05-05T12:45:55.216Z,44.21
2023-05-05T12:48:06.724Z,44.01
2023-05-05T12:50:18.822Z,45.62
2023-05-05T12:52:31.399Z,45.79
2023-05-05T12:54:44.258Z,44.29
2023-05-05T12:56:57.328Z,47.49
2023-05-05T12:59:09.439Z,44.59
2023-05-05T13:01:22.438Z,43.51
2023-05-05T13:03:33.616Z,45.59
2023-05-05T13:05:45.673Z,44.89
2023-05-05T13:07:58.765Z,45.97
2023-05-05T13:10:11.839Z,43.70
2023-05-05T13:12:25.154Z,45.00
2023-05-05T13:14:37.989Z,44.51
2023-05-05T13:16:51.612Z,46.30
2023-05-05T13:19:04.700Z,44.89
2023-05-05T13:21:19.236Z,46.12
2023-05-05T13:23:32.865Z,44.82
2023-05-05T13:25:44.941Z,46.64
2023-05-05T13:28:00.581Z,45.69
2023-05-05T13:30:11.678Z,45.51
2023-05-05T13:32:23.741Z,44.51
2023-05-05T13:34:35.839Z,44.64
2023-05-05T13:36:47.912Z,48.14
2023-05-05T13:38:59.968Z,46.92
2023-05-05T13:41:12.097Z,45.72
2023-05-05T13:43:24.156Z,46.01
2023-05-05T13:45:39.979Z,46.92
2023-05-05T13:47:49.830Z,46.22
2023-05-05T13:50:02.230Z,46.31
2023-05-05T13:52:15.314Z,46.19
2023-05-05T13:54:27.325Z,47.37
2023-05-05T13:56:39.389Z,45.17
2023-05-05T13:58:51.475Z,45.00
2023-05-05T14:01:03.569Z,46.01
2023-05-05T14:03:16.570Z,47.52
2023-05-05T14:05:32.933Z,46.62
2023-05-05T14:07:41.692Z,46.31
2023-05-05T14:09:54.753Z,46.46
2023-05-05T14:12:05.971Z,47.36
2023-05-05T14:14:18.066Z,47.36
2023-05-05T14:16:30.510Z,47.19
2023-05-05T14:18:43.502Z,47.49
2023-05-05T14:20:55.560Z,47.66
2023-05-05T14:23:07.639Z,46.46
2023-05-05T14:25:19.738Z,46.14
2023-05-05T14:27:31.790Z,46.84
2023-05-05T14:29:44.795Z,46.44
2023-05-05T14:31:55.986Z,47.04
2023-05-05T14:34:08.304Z,46.64
2023-05-05T14:36:20.463Z,46.34
2023-05-05T14:38:32.561Z,46.36
2023-05-05T14:40:44.592Z,47.26
2023-05-05T14:42:57.686Z,47.44
2023-05-05T14:45:09.958Z,46.31
2023-05-05T14:47:21.893Z,46.06
2023-05-05T14:49:33.912Z,47.46
2023-05-05T14:51:45.986Z,47.76
2023-05-05T14:53:59.989Z,48.57
2023-05-05T14:56:11.134Z,46.94
2023-05-05T14:58:23.212Z,48.34
2023-05-05T15:00:35.288Z,45.81
2023-05-05T15:02:49.888Z,46.31
2023-05-05T15:05:00.995Z,46.39
2023-05-05T15:07:14.073Z,46.31
2023-05-05T15:09:26.189Z,45.74
2023-05-05T15:11:38.313Z,46.74
2023-05-05T15:13:51.330Z,46.96
2023-05-05T15:16:02.498Z,48.28
2023-05-05T15:18:14.573Z,47.99
2023-05-05T15:20:28.998Z,49.21
2023-05-05T15:22:44.011Z,49.13
2023-05-05T15:24:55.200Z,48.33
2023-05-05T15:27:08.267Z,48.96
2023-05-05T15:29:19.329Z,47.96
2023-05-05T15:31:31.496Z,48.55
2023-05-05T15:33:44.007Z,48.75
2023-05-05T15:35:55.564Z,48.93
2023-05-05T15:38:08.544Z,49.63
2023-05-05T15:40:19.717Z,48.91
2023-05-05T15:42:31.848Z,49.01
2023-05-05T15:44:43.869Z,48.11
2023-05-05T15:46:55.998Z,49.23
2023-05-05T15:49:08.035Z,48.53
2023-05-05T15:51:20.116Z,49.46
2023-05-05T15:53:33.178Z,49.05
2023-05-05T15:55:45.249Z,49.86
2023-05-05T15:57:57.335Z,50.26
2023-05-05T16:00:10.487Z,49.46
2023-05-05T16:02:23.604Z,49.68
2023-05-05T16:04:35.619Z,49.98
2023-05-05T16:06:46.778Z,50.71
2023-05-05T16:08:59.872Z,50.71
2023-05-05T16:11:13.812Z,50.11
2023-05-05T16:13:25.110Z,49.91
2023-05-05T16:15:37.204Z,51.14
2023-05-05T16:17:49.253Z,50.33
2023-05-05T16:20:01.449Z,50.33
2023-05-05T16:22:13.411Z,49.85
2023-05-05T16:24:26.010Z,51.76
2023-05-05T16:26:37.591Z,52.06
2023-05-05T16:28:49.644Z,51.76
2023-05-05T16:31:02.621Z,52.09
2023-05-05T16:33:14.708Z,52.29
2023-05-05T16:35:26.785Z,52.69
2023-05-05T16:37:37.976Z,51.99
2023-05-05T16:39:50.029Z,51.79
2023-05-05T16:42:02.151Z,52.39
2023-05-05T16:44:14.254Z,52.82
2023-05-05T16:46:27.255Z,52.51
2023-05-05T16:48:38.377Z,52.44
2023-05-05T16:50:50.429Z,52.64
2023-05-05T16:53:03.496Z,52.74
2023-05-05T16:55:15.581Z,53.34
2023-05-05T16:57:27.657Z,53.27
2023-05-05T16:59:40.766Z,54.28
2023-05-05T17:01:53.719Z,54.08
2023-05-05T17:04:04.914Z,54.28
2023-05-05T17:06:16.949Z,54.38
2023-05-05T17:08:29.059Z,54.71
2023-05-05T17:10:42.214Z,54.81
2023-05-05T17:12:55.262Z,54.71
2023-05-05T17:15:05.419Z,55.21
2023-05-05T17:17:17.488Z,55.84
2023-05-05T17:19:31.451Z,55.24
2023-05-05T17:21:42.959Z,55.84
2023-05-05T17:23:55.013Z,55.24
2023-05-05T17:26:07.097Z,55.64
2023-05-05T17:28:19.772Z,55.54
2023-05-05T17:30:33.632Z,55.34
2023-05-05T17:32:46.342Z,55.87
2023-05-05T17:34:59.300Z,56.27
2023-05-05T17:37:14.995Z,56.37
2023-05-05T17:39:27.583Z,56.37
2023-05-05T17:41:41.147Z,56.57
2023-05-05T17:43:54.766Z,56.37
2023-05-05T17:46:06.871Z,56.50
2023-05-05T17:48:18.947Z,56.50
2023-05-05T17:50:32.466Z,57.10
2023-05-05T17:52:44.540Z,56.30
2023-05-05T17:54:58.175Z,56.90
2023-05-05T17:57:11.221Z,57.61
2023-05-05T17:59:25.671Z,56.90
2023-05-05T18:01:36.926Z,56.81
2023-05-05T18:03:50.472Z,57.31
2023-05-05T18:06:03.760Z,57.43
2023-05-05T18:08:16.317Z,57.64
2023-05-05T18:10:27.862Z,57.84
2023-05-05T18:12:41.030Z,58.45
2023-05-05T18:14:56.838Z,58.34
2023-05-05T18:17:10.640Z,58.54
2023-05-05T18:19:22.751Z,58.78
2023-05-05T18:21:34.789Z,58.58
2023-05-05T18:23:47.898Z,58.98
2023-05-05T18:25:59.994Z,59.28
2023-05-05T18:28:12.082Z,59.28
2023-05-05T18:30:25.656Z,61.00
2023-05-05T18:32:44.621Z,64.67
2023-05-05T18:34:57.314Z,64.59
2023-05-05T18:37:12.898Z,67.46
2023-05-05T18:39:27.500Z,66.85
2023-05-05T18:41:43.029Z,65.67
2023-05-05T18:44:04.069Z,66.38
2023-05-05T18:44:59.538Z,66.98
2023-05-05T18:47:16.605Z,67.89
2023-05-05T18:50:04.824Z,69.04
2023-05-05T18:51:50.166Z,68.23
2023-05-05T18:54:19.858Z,68.63
2023-05-05T18:56:15.915Z,68.02
2023-05-05T18:58:31.477Z,67.22
2023-05-05T19:00:45.548Z,67.62
2023-05-05T19:03:17.300Z,66.41
2023-05-05T19:05:18.193Z,67.11
2023-05-05T19:07:35.462Z,67.22
2023-05-05T19:09:43.290Z,66.71
2023-05-05T19:11:54.403Z,67.01
2023-05-05T19:14:07.981Z,66.94
2023-05-05T19:16:20.067Z,66.64
2023-05-05T19:18:32.157Z,66.54
2023-05-05T19:20:44.218Z,66.84
2023-05-05T19:22:56.284Z,66.13
2023-05-05T19:25:31.265Z,66.54
2023-05-05T19:27:24.354Z,66.74
2023-05-05T19:31:07.160Z,65.42
2023-05-05T19:33:08.408Z,65.02
2023-05-05T19:35:21.470Z,65.62
2023-05-05T19:40:28.751Z,64.61
2023-05-05T19:44:04.861Z,64.51
2023-05-05T19:51:00.423Z,65.12
2023-05-05T19:53:11.791Z,65.05
2023-05-05T19:56:10.852Z,65.15
2023-05-05T19:57:40.034Z,64.95
2023-05-05T19:59:53.096Z,64.85
2023-05-05T20:02:20.812Z,64.95
2023-05-05T20:04:44.862Z,65.36
2023-05-05T20:06:42.370Z,65.45
2023-05-05T20:08:54.433Z,65.05
2023-05-05T20:11:06.534Z,65.89
2023-05-05T20:13:18.655Z,65.59
2023-05-05T20:15:31.396Z,65.28
2023-05-05T20:17:42.848Z,65.48
2023-05-05T20:19:54.843Z,66.60
2023-05-05T20:22:07.800Z,66.60
2023-05-05T20:24:18.991Z,65.72
2023-05-05T20:26:31.156Z,65.62
2023-05-05T20:28:45.284Z,66.53
2023-05-05T20:30:55.224Z,66.53
2023-05-05T20:33:07.382Z,66.02
2023-05-05T20:35:19.386Z,66.74
2023-05-05T20:37:31.496Z,66.43
2023-05-05T20:39:44.540Z,66.74
2023-05-05T20:41:56.533Z,66.97
2023-05-05T20:44:07.719Z,66.56
2023-05-05T20:46:19.830Z,67.58
2023-05-05T20:48:33.070Z,66.36
2023-05-05T20:50:44.003Z,67.07
2023-05-05T20:52:57.532Z,67.07
2023-05-05T20:55:09.626Z,67.47
2023-05-05T20:57:21.691Z,67.17
2023-05-05T20:59:34.092Z,67.10
2023-05-05T21:01:46.221Z,67.20
2023-05-05T21:03:58.223Z,66.80
2023-05-05T21:06:10.315Z,67.61
2023-05-05T21:08:24.266Z,67.41
2023-05-05T21:10:36.448Z,68.42
2023-05-05T21:12:48.532Z,68.12
2023-05-05T21:15:00.633Z,68.93
2023-05-05T21:17:12.685Z,68.15
2023-05-05T21:19:24.775Z,67.64
2023-05-05T21:21:35.847Z,68.15
2023-05-05T21:23:47.990Z,67.13
2023-05-05T21:26:00.042Z,66.72
2023-05-05T21:28:12.089Z,66.93
2023-05-05T21:30:25.083Z,67.94
2023-05-05T21:32:36.299Z,68.45
2023-05-05T21:34:48.336Z,69.40
2023-05-05T21:37:00.410Z,69.09
2023-05-05T21:39:12.517Z,69.50
2023-05-05T21:41:25.559Z,70.01
2023-05-05T21:43:36.698Z,70.75
2023-05-05T21:45:50.259Z,71.67
2023-05-05T21:48:00.862Z,73.74
2023-05-05T21:50:13.825Z,79.23
2023-05-05T21:52:25.027Z,80.38
2023-05-05T21:54:37.096Z,81.04
2023-05-05T21:56:51.089Z,83.82
2023-05-05T21:59:02.261Z,87.84
2023-05-05T22:01:15.238Z,88.39
2023-05-05T22:03:27.493Z,88.28
2023-05-05T22:05:38.506Z,89.55
2023-05-05T22:07:52.992Z,90.16
2023-05-05T22:10:05.608Z,89.59
2023-05-05T22:12:15.780Z,88.57
2023-05-05T22:14:29.374Z,92.65
2023-05-05T22:16:40.939Z,93.21
2023-05-05T22:17:39.981Z,94.23
2023-05-05T22:19:52.058Z,93.82
2023-05-05T22:22:04.701Z,95.35
2023-05-05T22:24:17.236Z,95.29
2023-05-05T22:26:30.173Z,97.95
2023-05-05T22:28:41.368Z,96.77
2023-05-05T22:30:53.439Z,96.05
2023-05-05T22:33:05.553Z,97.58
2023-05-05T22:35:19.842Z,97.28
2023-05-05T22:37:32.193Z,99.22
2023-05-05T22:39:44.735Z,99.57
2023-05-05T22:41:58.306Z,98.86
2023-05-05T22:44:11.270Z,99.27
2023-05-05T22:46:23.811Z,99.57
2023-05-05T22:48:34.536Z,99.99
2023-05-05T22:50:48.646Z,99.99
2023-05-05T22:53:01.095Z,99.99
2023-05-05T22:55:13.764Z,99.99
2023-05-05T22:57:27.269Z,99.99
2023-05-05T22:59:37.945Z,99.99
2023-05-05T23:01:50.008Z,99.99
2023-05-05T23:04:02.138Z,99.99
2023-05-05T23:06:15.112Z,99.99
2023-05-05T23:08:27.271Z,99.99
2023-05-05T23:10:39.318Z,99.99
2023-05-05T23:12:51.976Z,99.99
2023-05-05T23:15:03.477Z,99.99
2023-05-05T23:17:15.588Z,99.99
2023-05-05T23:19:27.679Z,99.99
2023-05-05T23:21:52.179Z,99.99
2023-05-05T23:22:40.715Z,99.99
2023-05-05T23:24:51.830Z,99.99
2023-05-05T23:27:04.849Z,99.99
2023-05-05T23:29:16.959Z,99.99
2023-05-05T23:31:29.034Z,99.99
2023-05-05T23:33:43.024Z,99.99
2023-05-05T23:35:55.177Z,99.99
2023-05-05T23:38:08.131Z,99.99
2023-05-05T23:40:20.259Z,99.99
2023-05-05T23:42:33.312Z,99.99
2023-05-05T23:44:44.424Z,99.99
2023-05-05T23:46:56.538Z,99.99
2023-05-05T23:49:07.638Z,99.99
2023-05-05T23:51:21.223Z,99.99
2023-05-05T23:53:34.311Z,99.99
2023-05-05T23:55:47.394Z,99.99
2023-05-05T23:58:01.530Z,99.99
